sensor_id;sensor_type;location;lat;lon;timestamp;P1;durP1;ratioP1;P2;durP2;ratioP2
58896;SDS011;44677;52.378;10.400;2023-05-02T00:00:35;4.70;;;2.90;;
58896;SDS011;44677;52.378;10.400;2023-05-02T00:03:01;4.70;;;3.10;;
58896;SDS011;44677;52.378;10.400;2023-05-02T00:05:28;3.90;;;3.20;;
58896;SDS011;44677;52.378;10.400;2023-05-02T00:07:53;6.20;;;3.00;;
58896;SDS011;44677;52.378;10.400;2023-05-02T00:10:19;6.50;;;3.30;;
58896;SDS011;44677;52.378;10.400;2023-05-02T00:12:44;3.70;;;2.80;;
58896;SDS011;44677;52.378;10.400;2023-05-02T00:15:10;4.30;;;3.10;;
58896;SDS011;44677;52.378;10.400;2023-05-02T00:17:35;4.00;;;2.90;;
58896;SDS011;44677;52.378;10.400;2023-05-02T00:20:01;5.10;;;3.40;;
58896;SDS011;44677;52.378;10.400;2023-05-02T00:22:29;4.40;;;3.10;;
58896;SDS011;44677;52.378;10.400;2023-05-02T00:24:57;6.50;;;3.10;;
58896;SDS011;44677;52.378;10.400;2023-05-02T00:27:23;6.40;;;3.10;;
58896;SDS011;44677;52.378;10.400;2023-05-02T00:29:49;5.40;;;3.10;;
58896;SDS011;44677;52.378;10.400;2023-05-02T00:32:16;5.70;;;3.40;;
58896;SDS011;44677;52.378;10.400;2023-05-02T00:34:42;4.60;;;3.30;;
58896;SDS011;44677;52.378;10.400;2023-05-02T00:37:08;4.10;;;3.10;;
58896;SDS011;44677;52.378;10.400;2023-05-02T00:39:34;6.30;;;3.00;;
58896;SDS011;44677;52.378;10.400;2023-05-02T00:42:00;5.90;;;3.40;;
58896;SDS011;44677;52.378;10.400;2023-05-02T00:44:26;4.90;;;3.50;;
58896;SDS011;44677;52.378;10.400;2023-05-02T00:46:53;6.70;;;3.30;;
58896;SDS011;44677;52.378;10.400;2023-05-02T00:51:44;5.50;;;3.20;;
58896;SDS011;44677;52.378;10.400;2023-05-02T00:54:10;4.80;;;3.00;;
58896;SDS011;44677;52.378;10.400;2023-05-02T00:56:37;5.90;;;3.20;;
58896;SDS011;44677;52.378;10.400;2023-05-02T00:59:02;4.70;;;3.20;;
58896;SDS011;44677;52.378;10.400;2023-05-02T01:12:00;3.40;;;2.80;;
58896;SDS011;44677;52.378;10.400;2023-05-02T01:14:29;3.50;;;2.70;;
58896;SDS011;44677;52.378;10.400;2023-05-02T01:17:03;5.10;;;2.80;;
58896;SDS011;44677;52.378;10.400;2023-05-02T01:19:35;4.90;;;2.70;;
58896;SDS011;44677;52.378;10.400;2023-05-02T01:22:04;6.30;;;3.00;;
58896;SDS011;44677;52.378;10.400;2023-05-02T01:24:34;5.60;;;3.20;;
58896;SDS011;44677;52.378;10.400;2023-05-02T01:27:17;4.70;;;2.90;;
58896;SDS011;44677;52.378;10.400;2023-05-02T01:29:49;5.20;;;2.60;;
58896;SDS011;44677;52.378;10.400;2023-05-02T01:34:41;3.00;;;2.70;;
58896;SDS011;44677;52.378;10.400;2023-05-02T01:37:07;4.30;;;2.60;;
58896;SDS011;44677;52.378;10.400;2023-05-02T01:39:35;2.60;;;2.40;;
58896;SDS011;44677;52.378;10.400;2023-05-02T01:42:02;3.40;;;2.30;;
58896;SDS011;44677;52.378;10.400;2023-05-02T01:44:29;5.10;;;2.80;;
58896;SDS011;44677;52.378;10.400;2023-05-02T01:46:54;3.60;;;2.70;;
58896;SDS011;44677;52.378;10.400;2023-05-02T01:49:21;3.00;;;2.60;;
58896;SDS011;44677;52.378;10.400;2023-05-02T01:54:13;4.90;;;2.60;;
58896;SDS011;44677;52.378;10.400;2023-05-02T01:56:40;6.50;;;2.40;;
58896;SDS011;44677;52.378;10.400;2023-05-02T01:59:09;5.10;;;3.50;;
58896;SDS011;44677;52.378;10.400;2023-05-02T02:01:36;3.60;;;2.40;;
58896;SDS011;44677;52.378;10.400;2023-05-02T02:04:03;3.10;;;2.60;;
58896;SDS011;44677;52.378;10.400;2023-05-02T02:06:31;2.90;;;2.60;;
58896;SDS011;44677;52.378;10.400;2023-05-02T02:11:24;3.30;;;2.60;;
58896;SDS011;44677;52.378;10.400;2023-05-02T02:13:53;9.20;;;3.00;;
58896;SDS011;44677;52.378;10.400;2023-05-02T02:16:28;2.60;;;2.30;;
58896;SDS011;44677;52.378;10.400;2023-05-02T02:18:55;2.90;;;2.60;;
58896;SDS011;44677;52.378;10.400;2023-05-02T02:21:21;6.60;;;2.70;;
58896;SDS011;44677;52.378;10.400;2023-05-02T02:23:48;4.40;;;2.90;;
58896;SDS011;44677;52.378;10.400;2023-05-02T02:26:16;5.40;;;2.50;;
58896;SDS011;44677;52.378;10.400;2023-05-02T02:31:07;3.30;;;2.40;;
58896;SDS011;44677;52.378;10.400;2023-05-02T02:33:32;4.20;;;3.00;;
58896;SDS011;44677;52.378;10.400;2023-05-02T02:36:18;4.90;;;3.30;;
58896;SDS011;44677;52.378;10.400;2023-05-02T02:38:53;6.50;;;3.20;;
58896;SDS011;44677;52.378;10.400;2023-05-02T02:41:26;3.90;;;3.30;;
58896;SDS011;44677;52.378;10.400;2023-05-02T02:46:45;6.00;;;3.50;;
58896;SDS011;44677;52.378;10.400;2023-05-02T02:49:26;5.50;;;3.70;;
58896;SDS011;44677;52.378;10.400;2023-05-02T02:52:13;4.90;;;3.80;;
58896;SDS011;44677;52.378;10.400;2023-05-02T02:54:58;6.00;;;4.00;;
58896;SDS011;44677;52.378;10.400;2023-05-02T03:00:10;5.90;;;3.60;;
58896;SDS011;44677;52.378;10.400;2023-05-02T03:02:38;7.70;;;4.20;;
58896;SDS011;44677;52.378;10.400;2023-05-02T03:05:06;5.50;;;4.00;;
58896;SDS011;44677;52.378;10.400;2023-05-02T03:07:33;6.90;;;4.70;;
58896;SDS011;44677;52.378;10.400;2023-05-02T03:10:01;8.80;;;6.00;;
58896;SDS011;44677;52.378;10.400;2023-05-02T03:12:28;10.20;;;5.90;;
58896;SDS011;44677;52.378;10.400;2023-05-02T03:14:54;8.50;;;6.00;;
58896;SDS011;44677;52.378;10.400;2023-05-02T03:17:25;10.00;;;6.10;;
58896;SDS011;44677;52.378;10.400;2023-05-02T03:19:51;8.80;;;6.40;;
58896;SDS011;44677;52.378;10.400;2023-05-02T03:22:17;8.20;;;6.40;;
58896;SDS011;44677;52.378;10.400;2023-05-02T03:24:43;13.70;;;7.30;;
58896;SDS011;44677;52.378;10.400;2023-05-02T03:27:09;11.40;;;7.50;;
58896;SDS011;44677;52.378;10.400;2023-05-02T03:29:37;11.80;;;7.20;;
58896;SDS011;44677;52.378;10.400;2023-05-02T03:32:03;12.60;;;8.60;;
58896;SDS011;44677;52.378;10.400;2023-05-02T03:34:29;10.50;;;7.30;;
58896;SDS011;44677;52.378;10.400;2023-05-02T03:36:55;11.20;;;7.90;;
58896;SDS011;44677;52.378;10.400;2023-05-02T03:39:20;13.60;;;8.10;;
58896;SDS011;44677;52.378;10.400;2023-05-02T03:41:46;12.30;;;9.30;;
58896;SDS011;44677;52.378;10.400;2023-05-02T03:44:13;14.50;;;10.50;;
58896;SDS011;44677;52.378;10.400;2023-05-02T03:46:38;19.20;;;11.60;;
58896;SDS011;44677;52.378;10.400;2023-05-02T03:49:05;16.80;;;11.60;;
58896;SDS011;44677;52.378;10.400;2023-05-02T03:51:31;21.00;;;12.70;;
58896;SDS011;44677;52.378;10.400;2023-05-02T03:53:58;20.00;;;13.10;;
58896;SDS011;44677;52.378;10.400;2023-05-02T03:56:25;19.30;;;13.90;;
58896;SDS011;44677;52.378;10.400;2023-05-02T03:58:58;21.70;;;14.00;;
58896;SDS011;44677;52.378;10.400;2023-05-02T04:01:24;16.30;;;12.70;;
58896;SDS011;44677;52.378;10.400;2023-05-02T04:03:51;21.10;;;13.70;;
58896;SDS011;44677;52.378;10.400;2023-05-02T04:06:19;20.00;;;13.40;;
58896;SDS011;44677;52.378;10.400;2023-05-02T04:08:49;21.80;;;14.20;;
58896;SDS011;44677;52.378;10.400;2023-05-02T04:11:15;18.40;;;13.30;;
58896;SDS011;44677;52.378;10.400;2023-05-02T04:13:41;20.70;;;14.20;;
58896;SDS011;44677;52.378;10.400;2023-05-02T04:16:07;22.50;;;14.20;;
58896;SDS011;44677;52.378;10.400;2023-05-02T04:18:34;19.40;;;13.20;;
58896;SDS011;44677;52.378;10.400;2023-05-02T04:21:01;21.70;;;13.90;;
58896;SDS011;44677;52.378;10.400;2023-05-02T04:23:27;19.50;;;13.90;;
58896;SDS011;44677;52.378;10.400;2023-05-02T04:25:57;18.00;;;13.50;;
58896;SDS011;44677;52.378;10.400;2023-05-02T04:28:29;20.90;;;14.30;;
58896;SDS011;44677;52.378;10.400;2023-05-02T04:30:55;19.80;;;13.10;;
58896;SDS011;44677;52.378;10.400;2023-05-02T04:33:22;16.80;;;13.10;;
58896;SDS011;44677;52.378;10.400;2023-05-02T04:35:49;20.10;;;14.00;;
58896;SDS011;44677;52.378;10.400;2023-05-02T04:38:15;17.80;;;13.40;;
58896;SDS011;44677;52.378;10.400;2023-05-02T04:40:42;18.40;;;13.40;;
58896;SDS011;44677;52.378;10.400;2023-05-02T04:43:07;22.50;;;13.60;;
58896;SDS011;44677;52.378;10.400;2023-05-02T04:45:44;19.50;;;14.00;;
58896;SDS011;44677;52.378;10.400;2023-05-02T04:48:15;17.60;;;12.60;;
58896;SDS011;44677;52.378;10.400;2023-05-02T04:50:41;21.80;;;13.50;;
58896;SDS011;44677;52.378;10.400;2023-05-02T04:53:06;19.80;;;13.70;;
58896;SDS011;44677;52.378;10.400;2023-05-02T04:55:32;20.40;;;14.10;;
58896;SDS011;44677;52.378;10.400;2023-05-02T04:57:58;20.10;;;13.30;;
58896;SDS011;44677;52.378;10.400;2023-05-02T05:00:23;22.10;;;13.50;;
58896;SDS011;44677;52.378;10.400;2023-05-02T05:02:49;20.50;;;14.50;;
58896;SDS011;44677;52.378;10.400;2023-05-02T05:05:14;23.10;;;13.80;;
58896;SDS011;44677;52.378;10.400;2023-05-02T05:07:40;20.10;;;14.00;;
58896;SDS011;44677;52.378;10.400;2023-05-02T05:10:08;23.40;;;13.90;;
58896;SDS011;44677;52.378;10.400;2023-05-02T05:12:40;22.70;;;13.90;;
58896;SDS011;44677;52.378;10.400;2023-05-02T05:15:06;18.60;;;13.70;;
58896;SDS011;44677;52.378;10.400;2023-05-02T05:17:32;19.70;;;13.60;;
58896;SDS011;44677;52.378;10.400;2023-05-02T05:19:59;22.90;;;14.70;;
58896;SDS011;44677;52.378;10.400;2023-05-02T05:22:26;23.60;;;14.20;;
58896;SDS011;44677;52.378;10.400;2023-05-02T05:24:52;23.40;;;15.40;;
58896;SDS011;44677;52.378;10.400;2023-05-02T05:27:18;19.90;;;13.40;;
58896;SDS011;44677;52.378;10.400;2023-05-02T05:29:44;20.50;;;13.30;;
58896;SDS011;44677;52.378;10.400;2023-05-02T05:32:09;21.00;;;14.00;;
58896;SDS011;44677;52.378;10.400;2023-05-02T05:34:35;22.10;;;14.30;;
58896;SDS011;44677;52.378;10.400;2023-05-02T05:37:01;17.90;;;13.00;;
58896;SDS011;44677;52.378;10.400;2023-05-02T05:39:26;19.30;;;13.00;;
58896;SDS011;44677;52.378;10.400;2023-05-02T05:41:54;15.20;;;10.20;;
58896;SDS011;44677;52.378;10.400;2023-05-02T05:44:19;15.70;;;10.50;;
58896;SDS011;44677;52.378;10.400;2023-05-02T05:46:57;15.70;;;9.60;;
58896;SDS011;44677;52.378;10.400;2023-05-02T05:49:30;15.70;;;10.80;;
58896;SDS011;44677;52.378;10.400;2023-05-02T05:51:57;14.90;;;9.50;;
58896;SDS011;44677;52.378;10.400;2023-05-02T05:54:31;14.60;;;10.00;;
58896;SDS011;44677;52.378;10.400;2023-05-02T05:56:58;13.60;;;9.00;;
58896;SDS011;44677;52.378;10.400;2023-05-02T05:59:33;12.60;;;9.10;;
58896;SDS011;44677;52.378;10.400;2023-05-02T06:02:04;9.80;;;6.80;;
58896;SDS011;44677;52.378;10.400;2023-05-02T06:04:31;10.50;;;7.10;;
58896;SDS011;44677;52.378;10.400;2023-05-02T06:07:02;7.50;;;6.10;;
58896;SDS011;44677;52.378;10.400;2023-05-02T06:10:12;6.30;;;3.90;;
58896;SDS011;44677;52.378;10.400;2023-05-02T06:12:40;3.50;;;2.70;;
58896;SDS011;44677;52.378;10.400;2023-05-02T06:17:35;3.30;;;2.30;;
58896;SDS011;44677;52.378;10.400;2023-05-02T06:20:04;3.30;;;2.20;;
58896;SDS011;44677;52.378;10.400;2023-05-02T06:22:30;2.60;;;1.70;;
58896;SDS011;44677;52.378;10.400;2023-05-02T06:24:58;3.00;;;1.50;;
58896;SDS011;44677;52.378;10.400;2023-05-02T06:27:24;1.90;;;1.80;;
58896;SDS011;44677;52.378;10.400;2023-05-02T06:29:50;2.60;;;2.40;;
58896;SDS011;44677;52.378;10.400;2023-05-02T06:32:16;4.00;;;1.90;;
58896;SDS011;44677;52.378;10.400;2023-05-02T06:34:42;3.70;;;2.00;;
58896;SDS011;44677;52.378;10.400;2023-05-02T06:37:08;2.70;;;1.90;;
58896;SDS011;44677;52.378;10.400;2023-05-02T06:39:33;3.80;;;2.00;;
58896;SDS011;44677;52.378;10.400;2023-05-02T06:41:58;2.20;;;2.00;;
58896;SDS011;44677;52.378;10.400;2023-05-02T06:44:25;3.70;;;2.30;;
58896;SDS011;44677;52.378;10.400;2023-05-02T06:46:50;7.10;;;3.70;;
58896;SDS011;44677;52.378;10.400;2023-05-02T06:49:16;8.40;;;3.10;;
58896;SDS011;44677;52.378;10.400;2023-05-02T06:51:41;8.90;;;3.20;;
58896;SDS011;44677;52.378;10.400;2023-05-02T06:54:07;7.10;;;3.20;;
58896;SDS011;44677;52.378;10.400;2023-05-02T06:56:33;10.20;;;2.90;;
58896;SDS011;44677;52.378;10.400;2023-05-02T06:58:58;8.50;;;2.80;;
58896;SDS011;44677;52.378;10.400;2023-05-02T07:01:24;5.90;;;2.70;;
58896;SDS011;44677;52.378;10.400;2023-05-02T07:03:49;8.10;;;3.00;;
58896;SDS011;44677;52.378;10.400;2023-05-02T07:06:15;6.40;;;3.00;;
58896;SDS011;44677;52.378;10.400;2023-05-02T07:08:40;7.90;;;3.00;;
58896;SDS011;44677;52.378;10.400;2023-05-02T07:11:06;7.20;;;3.40;;
58896;SDS011;44677;52.378;10.400;2023-05-02T07:13:31;8.40;;;3.30;;
58896;SDS011;44677;52.378;10.400;2023-05-02T07:15:56;7.90;;;3.70;;
58896;SDS011;44677;52.378;10.400;2023-05-02T07:18:22;9.60;;;3.10;;
58896;SDS011;44677;52.378;10.400;2023-05-02T07:20:48;5.10;;;3.10;;
58896;SDS011;44677;52.378;10.400;2023-05-02T07:23:13;7.30;;;3.20;;
58896;SDS011;44677;52.378;10.400;2023-05-02T07:25:39;10.10;;;3.00;;
58896;SDS011;44677;52.378;10.400;2023-05-02T07:28:04;11.90;;;3.30;;
58896;SDS011;44677;52.378;10.400;2023-05-02T07:30:30;8.30;;;3.00;;
58896;SDS011;44677;52.378;10.400;2023-05-02T07:32:56;8.40;;;3.50;;
58896;SDS011;44677;52.378;10.400;2023-05-02T07:35:21;10.70;;;3.40;;
58896;SDS011;44677;52.378;10.400;2023-05-02T07:37:47;8.80;;;3.30;;
58896;SDS011;44677;52.378;10.400;2023-05-02T07:40:12;13.40;;;3.90;;
58896;SDS011;44677;52.378;10.400;2023-05-02T07:42:38;12.60;;;3.60;;
58896;SDS011;44677;52.378;10.400;2023-05-02T07:45:05;9.10;;;3.10;;
58896;SDS011;44677;52.378;10.400;2023-05-02T07:47:31;11.10;;;3.10;;
58896;SDS011;44677;52.378;10.400;2023-05-02T07:49:56;12.50;;;3.70;;
58896;SDS011;44677;52.378;10.400;2023-05-02T07:52:22;10.60;;;3.90;;
58896;SDS011;44677;52.378;10.400;2023-05-02T07:54:47;11.40;;;3.30;;
58896;SDS011;44677;52.378;10.400;2023-05-02T07:57:13;12.10;;;3.20;;
58896;SDS011;44677;52.378;10.400;2023-05-02T07:59:39;7.70;;;3.00;;
58896;SDS011;44677;52.378;10.400;2023-05-02T08:02:04;10.10;;;3.50;;
58896;SDS011;44677;52.378;10.400;2023-05-02T08:04:29;13.20;;;3.10;;
58896;SDS011;44677;52.378;10.400;2023-05-02T08:06:55;8.50;;;3.00;;
58896;SDS011;44677;52.378;10.400;2023-05-02T08:09:20;10.50;;;3.00;;
58896;SDS011;44677;52.378;10.400;2023-05-02T08:11:46;11.50;;;3.30;;
58896;SDS011;44677;52.378;10.400;2023-05-02T08:14:11;9.50;;;3.20;;
58896;SDS011;44677;52.378;10.400;2023-05-02T08:16:37;6.80;;;3.10;;
58896;SDS011;44677;52.378;10.400;2023-05-02T08:19:02;13.00;;;3.30;;
58896;SDS011;44677;52.378;10.400;2023-05-02T08:21:28;10.60;;;3.00;;
58896;SDS011;44677;52.378;10.400;2023-05-02T08:23:59;15.50;;;3.40;;
58896;SDS011;44677;52.378;10.400;2023-05-02T08:26:25;11.20;;;3.50;;
58896;SDS011;44677;52.378;10.400;2023-05-02T08:28:51;10.10;;;3.60;;
58896;SDS011;44677;52.378;10.400;2023-05-02T08:31:16;11.80;;;3.40;;
58896;SDS011;44677;52.378;10.400;2023-05-02T08:33:42;11.60;;;3.30;;
58896;SDS011;44677;52.378;10.400;2023-05-02T08:36:11;13.00;;;3.40;;
58896;SDS011;44677;52.378;10.400;2023-05-02T08:38:37;9.70;;;3.60;;
58896;SDS011;44677;52.378;10.400;2023-05-02T08:41:08;19.90;;;3.40;;
58896;SDS011;44677;52.378;10.400;2023-05-02T08:43:42;13.40;;;3.30;;
58896;SDS011;44677;52.378;10.400;2023-05-02T08:46:09;11.40;;;3.50;;
58896;SDS011;44677;52.378;10.400;2023-05-02T08:48:36;8.30;;;3.10;;
58896;SDS011;44677;52.378;10.400;2023-05-02T08:51:03;13.20;;;3.80;;
58896;SDS011;44677;52.378;10.400;2023-05-02T08:53:32;7.90;;;2.90;;
58896;SDS011;44677;52.378;10.400;2023-05-02T08:55:58;10.50;;;3.30;;
58896;SDS011;44677;52.378;10.400;2023-05-02T08:58:24;14.20;;;4.00;;
58896;SDS011;44677;52.378;10.400;2023-05-02T09:00:49;11.80;;;3.10;;
58896;SDS011;44677;52.378;10.400;2023-05-02T09:03:28;9.00;;;2.90;;
58896;SDS011;44677;52.378;10.400;2023-05-02T09:06:08;11.00;;;3.10;;
58896;SDS011;44677;52.378;10.400;2023-05-02T09:08:37;5.60;;;2.50;;
58896;SDS011;44677;52.378;10.400;2023-05-02T09:11:03;9.90;;;3.00;;
58896;SDS011;44677;52.378;10.400;2023-05-02T09:13:30;6.50;;;2.40;;
58896;SDS011;44677;52.378;10.400;2023-05-02T09:18:35;8.10;;;2.30;;
58896;SDS011;44677;52.378;10.400;2023-05-02T09:21:05;5.30;;;2.10;;
58896;SDS011;44677;52.378;10.400;2023-05-02T09:23:33;4.70;;;1.90;;
58896;SDS011;44677;52.378;10.400;2023-05-02T09:25:59;6.90;;;1.90;;
58896;SDS011;44677;52.378;10.400;2023-05-02T09:28:38;5.90;;;2.40;;
58896;SDS011;44677;52.378;10.400;2023-05-02T09:31:09;9.50;;;2.30;;
58896;SDS011;44677;52.378;10.400;2023-05-02T09:33:36;8.40;;;2.20;;
58896;SDS011;44677;52.378;10.400;2023-05-02T09:36:03;6.90;;;2.90;;
58896;SDS011;44677;52.378;10.400;2023-05-02T09:38:29;6.30;;;2.30;;
58896;SDS011;44677;52.378;10.400;2023-05-02T09:40:54;4.60;;;2.20;;
58896;SDS011;44677;52.378;10.400;2023-05-02T09:43:22;7.90;;;2.50;;
58896;SDS011;44677;52.378;10.400;2023-05-02T09:45:55;10.00;;;2.30;;
58896;SDS011;44677;52.378;10.400;2023-05-02T09:48:21;4.10;;;2.20;;
58896;SDS011;44677;52.378;10.400;2023-05-02T09:50:46;3.00;;;2.00;;
58896;SDS011;44677;52.378;10.400;2023-05-02T09:53:12;6.10;;;2.20;;
58896;SDS011;44677;52.378;10.400;2023-05-02T09:55:37;4.60;;;2.00;;
58896;SDS011;44677;52.378;10.400;2023-05-02T09:58:03;5.50;;;2.10;;
58896;SDS011;44677;52.378;10.400;2023-05-02T10:00:36;5.40;;;2.10;;
58896;SDS011;44677;52.378;10.400;2023-05-02T10:03:05;5.00;;;2.00;;
58896;SDS011;44677;52.378;10.400;2023-05-02T10:05:36;4.40;;;2.20;;
58896;SDS011;44677;52.378;10.400;2023-05-02T10:08:05;4.80;;;2.80;;
58896;SDS011;44677;52.378;10.400;2023-05-02T10:13:00;5.00;;;1.80;;
58896;SDS011;44677;52.378;10.400;2023-05-02T10:15:28;4.40;;;1.90;;
58896;SDS011;44677;52.378;10.400;2023-05-02T10:17:55;4.50;;;2.20;;
58896;SDS011;44677;52.378;10.400;2023-05-02T10:20:24;3.20;;;2.30;;
58896;SDS011;44677;52.378;10.400;2023-05-02T10:22:59;4.00;;;2.30;;
58896;SDS011;44677;52.378;10.400;2023-05-02T10:27:51;5.30;;;2.10;;
58896;SDS011;44677;52.378;10.400;2023-05-02T10:30:17;4.30;;;2.20;;
58896;SDS011;44677;52.378;10.400;2023-05-02T10:32:43;3.10;;;2.00;;
58896;SDS011;44677;52.378;10.400;2023-05-02T10:35:10;3.80;;;2.10;;
58896;SDS011;44677;52.378;10.400;2023-05-02T10:37:37;5.40;;;2.10;;
58896;SDS011;44677;52.378;10.400;2023-05-02T10:40:03;5.50;;;2.40;;
58896;SDS011;44677;52.378;10.400;2023-05-02T10:44:55;4.30;;;2.40;;
58896;SDS011;44677;52.378;10.400;2023-05-02T10:47:21;8.30;;;2.30;;
58896;SDS011;44677;52.378;10.400;2023-05-02T10:49:56;7.10;;;2.40;;
58896;SDS011;44677;52.378;10.400;2023-05-02T11:00:24;7.50;;;2.70;;
58896;SDS011;44677;52.378;10.400;2023-05-02T11:05:16;8.60;;;2.50;;
58896;SDS011;44677;52.378;10.400;2023-05-02T11:07:41;5.20;;;2.20;;
58896;SDS011;44677;52.378;10.400;2023-05-02T11:12:45;7.40;;;2.60;;
58896;SDS011;44677;52.378;10.400;2023-05-02T11:18:12;7.10;;;2.60;;
58896;SDS011;44677;52.378;10.400;2023-05-02T11:20:41;8.20;;;2.60;;
58896;SDS011;44677;52.378;10.400;2023-05-02T11:25:47;6.20;;;2.10;;
58896;SDS011;44677;52.378;10.400;2023-05-02T11:30:58;6.70;;;2.40;;
58896;SDS011;44677;52.378;10.400;2023-05-02T11:33:25;5.90;;;2.90;;
58896;SDS011;44677;52.378;10.400;2023-05-02T11:35:52;6.70;;;2.60;;
58896;SDS011;44677;52.378;10.400;2023-05-02T11:38:18;9.90;;;2.70;;
58896;SDS011;44677;52.378;10.400;2023-05-02T11:40:57;9.10;;;3.00;;
58896;SDS011;44677;52.378;10.400;2023-05-02T11:43:25;5.90;;;2.70;;
58896;SDS011;44677;52.378;10.400;2023-05-02T11:45:52;4.70;;;2.90;;
58896;SDS011;44677;52.378;10.400;2023-05-02T11:48:20;7.20;;;2.90;;
58896;SDS011;44677;52.378;10.400;2023-05-02T11:50:49;7.40;;;2.70;;
58896;SDS011;44677;52.378;10.400;2023-05-02T11:53:18;8.10;;;3.20;;
58896;SDS011;44677;52.378;10.400;2023-05-02T11:55:48;7.40;;;2.90;;
58896;SDS011;44677;52.378;10.400;2023-05-02T11:58:21;8.10;;;2.70;;
58896;SDS011;44677;52.378;10.400;2023-05-02T12:00:48;7.70;;;3.30;;
58896;SDS011;44677;52.378;10.400;2023-05-02T12:05:44;8.20;;;2.90;;
58896;SDS011;44677;52.378;10.400;2023-05-02T12:08:16;5.90;;;3.00;;
58896;SDS011;44677;52.378;10.400;2023-05-02T12:10:53;7.50;;;2.90;;
58896;SDS011;44677;52.378;10.400;2023-05-02T12:13:20;6.90;;;3.00;;
58896;SDS011;44677;52.378;10.400;2023-05-02T12:15:50;7.00;;;2.90;;
58896;SDS011;44677;52.378;10.400;2023-05-02T12:18:17;8.20;;;2.80;;
58896;SDS011;44677;52.378;10.400;2023-05-02T12:20:43;7.40;;;3.10;;
58896;SDS011;44677;52.378;10.400;2023-05-02T12:23:09;10.30;;;3.30;;
58896;SDS011;44677;52.378;10.400;2023-05-02T12:25:38;7.60;;;3.40;;
58896;SDS011;44677;52.378;10.400;2023-05-02T12:28:04;7.30;;;3.10;;
58896;SDS011;44677;52.378;10.400;2023-05-02T12:30:30;12.30;;;3.20;;
58896;SDS011;44677;52.378;10.400;2023-05-02T12:32:57;8.20;;;2.90;;
58896;SDS011;44677;52.378;10.400;2023-05-02T12:35:25;7.30;;;3.40;;
58896;SDS011;44677;52.378;10.400;2023-05-02T12:37:51;6.60;;;3.30;;
58896;SDS011;44677;52.378;10.400;2023-05-02T12:40:18;5.90;;;2.70;;
58896;SDS011;44677;52.378;10.400;2023-05-02T12:43:01;10.70;;;2.60;;
58896;SDS011;44677;52.378;10.400;2023-05-02T12:45:34;8.20;;;2.70;;
58896;SDS011;44677;52.378;10.400;2023-05-02T12:48:00;6.40;;;2.80;;
58896;SDS011;44677;52.378;10.400;2023-05-02T12:50:39;7.10;;;3.30;;
58896;SDS011;44677;52.378;10.400;2023-05-02T12:53:04;7.60;;;3.10;;
58896;SDS011;44677;52.378;10.400;2023-05-02T12:55:30;6.80;;;2.70;;
58896;SDS011;44677;52.378;10.400;2023-05-02T12:57:59;9.40;;;3.10;;
58896;SDS011;44677;52.378;10.400;2023-05-02T13:00:27;6.00;;;2.80;;
58896;SDS011;44677;52.378;10.400;2023-05-02T13:02:53;6.10;;;2.50;;
58896;SDS011;44677;52.378;10.400;2023-05-02T13:05:19;5.60;;;2.70;;
58896;SDS011;44677;52.378;10.400;2023-05-02T13:07:44;6.00;;;2.70;;
58896;SDS011;44677;52.378;10.400;2023-05-02T13:10:10;6.80;;;3.00;;
58896;SDS011;44677;52.378;10.400;2023-05-02T13:12:37;4.90;;;2.40;;
58896;SDS011;44677;52.378;10.400;2023-05-02T13:15:04;4.80;;;3.00;;
58896;SDS011;44677;52.378;10.400;2023-05-02T13:17:31;5.90;;;2.90;;
58896;SDS011;44677;52.378;10.400;2023-05-02T13:19:57;7.20;;;2.80;;
58896;SDS011;44677;52.378;10.400;2023-05-02T13:22:22;4.80;;;2.60;;
58896;SDS011;44677;52.378;10.400;2023-05-02T13:24:48;5.00;;;2.70;;
58896;SDS011;44677;52.378;10.400;2023-05-02T13:27:13;5.60;;;2.50;;
58896;SDS011;44677;52.378;10.400;2023-05-02T13:29:39;5.80;;;2.60;;
58896;SDS011;44677;52.378;10.400;2023-05-02T13:32:04;5.30;;;2.60;;
58896;SDS011;44677;52.378;10.400;2023-05-02T13:34:30;8.50;;;2.30;;
58896;SDS011;44677;52.378;10.400;2023-05-02T13:36:55;19.00;;;3.10;;
58896;SDS011;44677;52.378;10.400;2023-05-02T13:39:21;11.80;;;3.20;;
58896;SDS011;44677;52.378;10.400;2023-05-02T13:41:47;7.40;;;2.60;;
58896;SDS011;44677;52.378;10.400;2023-05-02T13:44:12;4.20;;;2.50;;
58896;SDS011;44677;52.378;10.400;2023-05-02T13:46:37;9.10;;;2.80;;
58896;SDS011;44677;52.378;10.400;2023-05-02T13:49:03;4.40;;;2.30;;
58896;SDS011;44677;52.378;10.400;2023-05-02T13:51:29;8.80;;;2.50;;
58896;SDS011;44677;52.378;10.400;2023-05-02T13:53:56;6.10;;;2.40;;
58896;SDS011;44677;52.378;10.400;2023-05-02T13:56:22;4.80;;;2.30;;
58896;SDS011;44677;52.378;10.400;2023-05-02T13:58:47;3.20;;;1.90;;
58896;SDS011;44677;52.378;10.400;2023-05-02T14:30:32;3.20;;;1.80;;
58896;SDS011;44677;52.378;10.400;2023-05-02T14:32:57;2.20;;;1.90;;
58896;SDS011;44677;52.378;10.400;2023-05-02T14:35:23;3.10;;;1.90;;
58896;SDS011;44677;52.378;10.400;2023-05-02T14:37:48;3.80;;;1.80;;
58896;SDS011;44677;52.378;10.400;2023-05-02T14:40:14;3.40;;;1.80;;
58896;SDS011;44677;52.378;10.400;2023-05-02T14:42:40;4.90;;;2.30;;
58896;SDS011;44677;52.378;10.400;2023-05-02T14:45:06;3.70;;;1.90;;
58896;SDS011;44677;52.378;10.400;2023-05-02T14:47:32;2.70;;;2.00;;
58896;SDS011;44677;52.378;10.400;2023-05-02T14:49:57;2.30;;;1.70;;
58896;SDS011;44677;52.378;10.400;2023-05-02T14:52:23;4.00;;;1.90;;
58896;SDS011;44677;52.378;10.400;2023-05-02T14:54:49;6.20;;;1.90;;
58896;SDS011;44677;52.378;10.400;2023-05-02T14:57:14;3.10;;;1.70;;
58896;SDS011;44677;52.378;10.400;2023-05-02T14:59:40;6.20;;;1.80;;
58896;SDS011;44677;52.378;10.400;2023-05-02T15:02:06;3.10;;;1.70;;
58896;SDS011;44677;52.378;10.400;2023-05-02T15:04:31;7.40;;;1.80;;
58896;SDS011;44677;52.378;10.400;2023-05-02T15:06:58;6.50;;;2.30;;
58896;SDS011;44677;52.378;10.400;2023-05-02T15:09:25;3.00;;;1.60;;
58896;SDS011;44677;52.378;10.400;2023-05-02T15:11:51;3.50;;;1.50;;
58896;SDS011;44677;52.378;10.400;2023-05-02T15:14:17;3.30;;;1.90;;
58896;SDS011;44677;52.378;10.400;2023-05-02T15:16:42;5.80;;;1.50;;
58896;SDS011;44677;52.378;10.400;2023-05-02T15:19:08;2.30;;;1.60;;
58896;SDS011;44677;52.378;10.400;2023-05-02T15:21:33;3.60;;;1.50;;
58896;SDS011;44677;52.378;10.400;2023-05-02T15:23:59;2.70;;;1.60;;
58896;SDS011;44677;52.378;10.400;2023-05-02T15:26:25;4.30;;;1.50;;
58896;SDS011;44677;52.378;10.400;2023-05-02T15:28:51;2.20;;;1.40;;
58896;SDS011;44677;52.378;10.400;2023-05-02T15:31:17;2.00;;;1.50;;
58896;SDS011;44677;52.378;10.400;2023-05-02T15:33:42;2.50;;;1.30;;
58896;SDS011;44677;52.378;10.400;2023-05-02T15:36:08;2.00;;;1.20;;
58896;SDS011;44677;52.378;10.400;2023-05-02T15:38:33;5.10;;;1.50;;
58896;SDS011;44677;52.378;10.400;2023-05-02T15:41:04;2.60;;;1.20;;
58896;SDS011;44677;52.378;10.400;2023-05-02T15:43:31;2.90;;;1.90;;
58896;SDS011;44677;52.378;10.400;2023-05-02T15:45:58;4.10;;;1.40;;
58896;SDS011;44677;52.378;10.400;2023-05-02T15:50:57;3.40;;;1.70;;
58896;SDS011;44677;52.378;10.400;2023-05-02T15:53:22;2.30;;;1.30;;
58896;SDS011;44677;52.378;10.400;2023-05-02T15:55:48;2.40;;;1.40;;
58896;SDS011;44677;52.378;10.400;2023-05-02T15:58:16;2.70;;;1.20;;
58896;SDS011;44677;52.378;10.400;2023-05-02T16:00:43;4.00;;;1.40;;
58896;SDS011;44677;52.378;10.400;2023-05-02T16:03:10;2.60;;;1.40;;
58896;SDS011;44677;52.378;10.400;2023-05-02T16:05:37;3.10;;;1.30;;